createdAt,value
2018-04-23T00:00:59.239Z,74.66
2018-04-23T00:02:00.981Z,73.80
2018-04-23T00:02:59.245Z,73.83
2018-04-23T00:03:59.248Z,74.08
2018-04-23T00:04:59.270Z,73.45
2018-04-23T00:05:59.254Z,73.65
2018-04-23T00:06:59.256Z,74.12
2018-04-23T00:07:59.259Z,73.83
2018-04-23T00:08:59.264Z,74.22
2018-04-23T00:09:59.269Z,74.47
2018-04-23T00:10:59.278Z,74.47
2018-04-23T00:11:59.273Z,74.47
2018-04-23T00:12:59.278Z,74.47
2018-04-23T00:13:59.280Z,74.76
2018-04-23T00:14:59.282Z,73.61
2018-04-23T00:15:59.286Z,74.08
2018-04-23T00:16:59.291Z,73.80
2018-04-23T00:17:59.294Z,74.76
2018-04-23T00:18:59.296Z,76.00
2018-04-23T00:19:59.315Z,75.62
2018-04-23T00:20:59.305Z,76.39
2018-04-23T00:21:59.311Z,76.19
2018-04-23T00:22:59.367Z,75.14
2018-04-23T00:23:59.322Z,75.33
2018-04-23T00:24:59.316Z,74.85
2018-04-23T00:25:59.930Z,74.27
2018-04-23T00:26:59.323Z,74.27
2018-04-23T00:27:59.326Z,74.08
2018-04-23T00:28:59.330Z,74.66
2018-04-23T00:29:59.332Z,73.90
2018-04-23T00:30:59.335Z,73.80
2018-04-23T00:31:59.340Z,74.85
2018-04-23T00:32:59.344Z,73.99
2018-04-23T00:33:59.347Z,73.99
2018-04-23T00:34:59.349Z,74.27
2018-04-23T00:35:59.352Z,73.90
2018-04-23T00:36:59.360Z,74.27
2018-04-23T00:37:59.359Z,74.47
2018-04-23T00:38:59.363Z,74.37
2018-04-23T00:39:59.365Z,74.27
2018-04-23T00:40:59.367Z,74.27
2018-04-23T00:41:59.372Z,73.99
2018-04-23T00:42:59.386Z,73.99
2018-04-23T00:43:59.383Z,74.47
2018-04-23T00:44:59.381Z,74.27
2018-04-23T00:45:59.412Z,74.47
2018-04-23T00:46:59.389Z,73.70
2018-04-23T00:47:59.395Z,74.37
2018-04-23T00:48:59.395Z,74.37
2018-04-23T00:49:59.399Z,73.51
2018-04-23T00:50:59.401Z,73.70
2018-04-23T00:51:59.403Z,73.51
2018-04-23T00:52:59.935Z,73.03
2018-04-23T00:53:59.412Z,73.22
2018-04-23T00:54:59.413Z,73.03
2018-04-23T00:55:59.416Z,73.32
2018-04-23T00:56:59.419Z,73.41
2018-04-23T00:57:59.423Z,73.61
2018-04-23T00:58:59.426Z,73.51
2018-04-23T00:59:59.427Z,73.61
2018-04-23T01:00:59.433Z,73.90
2018-04-23T01:01:59.436Z,73.70
2018-04-23T01:02:59.439Z,73.61
2018-04-23T01:03:59.441Z,73.80
2018-04-23T01:04:59.453Z,74.37
2018-04-23T01:05:59.457Z,74.27
2018-04-23T01:06:59.458Z,74.57
2018-04-23T01:07:59.459Z,73.70
2018-04-23T01:08:59.458Z,74.37
2018-04-23T01:09:59.461Z,74.27
2018-04-23T01:10:59.463Z,74.37
2018-04-23T01:11:59.466Z,74.47
2018-04-23T01:12:59.470Z,74.95
2018-04-23T01:13:59.475Z,74.66
2018-04-23T01:14:59.481Z,74.47
2018-04-23T01:15:59.482Z,74.57
2018-04-23T01:16:59.482Z,74.37
2018-04-23T01:17:59.505Z,74.47
2018-04-23T01:18:59.490Z,74.47
2018-04-23T01:19:59.495Z,74.66
2018-04-23T01:20:59.494Z,74.95
2018-04-23T01:21:59.498Z,74.76
2018-04-23T01:22:59.499Z,75.04
2018-04-23T01:23:59.504Z,74.85
2018-04-23T01:24:59.506Z,75.14
2018-04-23T01:25:59.509Z,74.95
2018-04-23T01:26:59.512Z,74.37
2018-04-23T01:27:59.516Z,74.66
2018-04-23T01:28:59.519Z,74.76
2018-04-23T01:29:59.521Z,74.95
2018-04-23T01:30:59.524Z,74.95
2018-04-23T01:31:59.531Z,74.76
2018-04-23T01:32:59.530Z,74.76
2018-04-23T01:33:59.534Z,74.47
2018-04-23T01:34:59.538Z,74.47
2018-04-23T01:35:59.539Z,74.57
2018-04-23T01:36:59.545Z,74.76
2018-04-23T01:37:59.547Z,74.85
2018-04-23T01:38:59.553Z,74.66
2018-04-23T01:39:59.567Z,74.57
2018-04-23T01:40:59.565Z,74.37
2018-04-23T01:41:59.559Z,74.47
2018-04-23T01:42:59.565Z,75.04
2018-04-23T01:43:59.565Z,74.95
2018-04-23T01:44:59.568Z,75.14
2018-04-23T01:45:59.570Z,75.71
2018-04-23T01:46:59.575Z,75.14
2018-04-23T01:47:59.578Z,75.04
2018-04-23T01:48:59.579Z,75.43
2018-04-23T01:49:59.583Z,75.14
2018-04-23T01:50:59.585Z,74.95
2018-04-23T01:51:59.589Z,74.85
2018-04-23T01:52:59.592Z,75.33
2018-04-23T01:53:59.596Z,74.95
2018-04-23T01:54:59.599Z,75.71
2018-04-23T01:55:59.601Z,75.04
2018-04-23T01:56:59.604Z,75.71
2018-04-23T01:57:59.610Z,74.95
2018-04-23T01:58:59.610Z,75.52
2018-04-23T01:59:59.613Z,75.14
2018-04-23T02:00:59.617Z,75.43
2018-04-23T02:01:59.621Z,74.95
2018-04-23T02:02:59.666Z,75.52
2018-04-23T02:03:59.626Z,75.33
2018-04-23T02:04:59.679Z,75.62
2018-04-23T02:05:59.632Z,75.52
2018-04-23T02:06:59.636Z,75.52
2018-04-23T02:07:59.639Z,75.62
2018-04-23T02:08:59.643Z,75.52
2018-04-23T02:09:59.643Z,75.52
2018-04-23T02:10:59.647Z,74.57
2018-04-23T02:11:59.649Z,74.89
2018-04-23T02:12:59.657Z,74.89
2018-04-23T02:13:59.658Z,74.69
2018-04-23T02:15:00.448Z,74.89
2018-04-23T02:15:59.666Z,75.65
2018-04-23T02:16:59.666Z,75.52
2018-04-23T02:17:59.684Z,75.23
2018-04-23T02:18:59.671Z,75.43
2018-04-23T02:19:59.678Z,76.00
2018-04-23T02:20:59.678Z,75.08
2018-04-23T02:21:59.680Z,75.56
2018-04-23T02:22:59.689Z,74.51
2018-04-23T02:23:59.691Z,74.79
2018-04-23T02:24:59.692Z,74.69
2018-04-23T02:25:59.694Z,75.08
2018-04-23T02:26:59.696Z,75.75
2018-04-23T02:27:59.703Z,74.98
2018-04-23T02:28:59.704Z,75.27
2018-04-23T02:29:59.708Z,75.18
2018-04-23T02:30:59.719Z,75.08
2018-04-23T02:31:59.717Z,74.98
2018-04-23T02:32:59.715Z,74.54
2018-04-23T02:33:59.722Z,74.41
2018-04-23T02:34:59.721Z,74.51
2018-04-23T02:35:59.724Z,74.54
2018-04-23T02:36:59.730Z,74.41
2018-04-23T02:37:59.732Z,74.54
2018-04-23T02:38:59.735Z,74.35
2018-04-23T02:39:59.741Z,74.64
2018-04-23T02:40:59.742Z,75.12
2018-04-23T02:41:59.743Z,74.93
2018-04-23T02:42:59.749Z,74.44
2018-04-23T02:43:59.757Z,74.44
2018-04-23T02:44:59.755Z,74.54
2018-04-23T02:45:59.761Z,74.44
2018-04-23T02:46:59.760Z,74.73
2018-04-23T02:48:00.457Z,75.12
2018-04-23T02:48:59.767Z,75.02
2018-04-23T02:49:59.770Z,75.08
2018-04-23T02:50:59.776Z,75.46
2018-04-23T02:51:59.779Z,75.02
2018-04-23T02:52:59.784Z,74.54
2018-04-23T02:53:59.783Z,74.93
2018-04-23T02:54:59.787Z,75.02
2018-04-23T02:55:59.810Z,74.54
2018-04-23T02:56:59.794Z,75.12
2018-04-23T02:57:59.798Z,75.02
2018-04-23T02:58:59.803Z,75.40
2018-04-23T02:59:59.805Z,75.70
2018-04-23T03:00:59.811Z,75.98
2018-04-23T03:01:59.811Z,75.85
2018-04-23T03:02:59.875Z,76.23
2018-04-23T03:03:59.818Z,75.95
2018-04-23T03:04:59.820Z,75.95
2018-04-23T03:05:59.823Z,75.85
2018-04-23T03:06:59.829Z,75.37
2018-04-23T03:07:59.831Z,76.17
2018-04-23T03:08:59.846Z,75.60
2018-04-23T03:09:59.847Z,75.60
2018-04-23T03:10:59.840Z,75.70
2018-04-23T03:11:59.843Z,75.89
2018-04-23T03:12:59.849Z,76.07
2018-04-23T03:14:00.465Z,76.07
2018-04-23T03:14:59.858Z,75.70
2018-04-23T03:15:59.859Z,74.73
2018-04-23T03:16:59.863Z,75.02
2018-04-23T03:17:59.864Z,74.54
2018-04-23T03:18:59.871Z,74.64
2018-04-23T03:19:59.871Z,74.93
2018-04-23T03:20:59.875Z,75.50
2018-04-23T03:21:59.876Z,75.40
2018-04-23T03:22:59.881Z,74.93
2018-04-23T03:23:59.885Z,74.54
2018-04-23T03:25:00.469Z,74.35
2018-04-23T03:25:59.892Z,74.64
2018-04-23T03:26:59.897Z,74.44
2018-04-23T03:27:59.918Z,74.73
2018-04-23T03:28:59.906Z,74.44
2018-04-23T03:29:59.911Z,74.29
2018-04-23T03:30:59.908Z,74.54
2018-04-23T03:32:00.464Z,73.81
2018-04-23T03:32:59.915Z,73.81
2018-04-23T03:33:59.920Z,73.72
2018-04-23T03:34:59.922Z,74.39
2018-04-23T03:35:59.927Z,74.06
2018-04-23T03:36:59.931Z,74.54
2018-04-23T03:37:59.935Z,74.77
2018-04-23T03:38:59.937Z,74.16
2018-04-23T03:39:59.941Z,74.64
2018-04-23T03:40:59.974Z,74.58
2018-04-23T03:41:59.950Z,74.16
2018-04-23T03:42:59.950Z,74.16
2018-04-23T03:43:59.963Z,74.64
2018-04-23T03:44:59.998Z,74.58
2018-04-23T03:45:59.962Z,74.96
2018-04-23T03:46:59.967Z,75.02
2018-04-23T03:47:59.970Z,74.35
2018-04-23T03:48:59.985Z,74.44
2018-04-23T03:49:59.974Z,74.54
2018-04-23T03:50:59.977Z,74.83
2018-04-23T03:51:59.990Z,74.73
2018-04-23T03:52:59.987Z,74.64
2018-04-23T03:53:59.991Z,74.83
2018-04-23T03:54:59.992Z,74.83
2018-04-23T03:55:59.997Z,74.93
2018-04-23T03:57:00.001Z,74.83
2018-04-23T03:58:00.011Z,74.64
2018-04-23T03:59:00.011Z,74.73
2018-04-23T04:00:00.012Z,74.93
2018-04-23T04:01:00.014Z,74.64
2018-04-23T04:02:00.020Z,74.93
2018-04-23T04:03:00.021Z,74.93
2018-04-23T04:04:00.025Z,74.54
2018-04-23T04:05:00.032Z,74.64
2018-04-23T04:06:00.033Z,74.83
2018-04-23T04:07:00.035Z,74.68
2018-04-23T04:08:00.041Z,74.01
2018-04-23T04:09:00.043Z,74.64
2018-04-23T04:10:00.047Z,74.54
2018-04-23T04:11:00.050Z,74.64
2018-04-23T04:12:00.056Z,74.64
2018-04-23T04:13:00.055Z,74.35
2018-04-23T04:14:00.063Z,74.83
2018-04-23T04:15:00.066Z,74.54
2018-04-23T04:16:00.067Z,75.02
2018-04-23T04:17:00.071Z,75.02
2018-04-23T04:18:00.077Z,74.44
2018-04-23T04:19:00.105Z,75.12
2018-04-23T04:20:00.079Z,74.83
2018-04-23T04:21:00.084Z,75.40
2018-04-23T04:22:00.090Z,75.60
2018-04-23T04:23:00.092Z,74.93
2018-04-23T04:24:00.095Z,75.31
2018-04-23T04:25:00.103Z,75.31
2018-04-23T04:26:00.103Z,75.70
2018-04-23T04:27:00.102Z,75.40
2018-04-23T04:28:00.114Z,75.60
2018-04-23T04:29:00.113Z,75.21
2018-04-23T04:30:00.116Z,76.07
2018-04-23T04:31:00.122Z,75.89
2018-04-23T04:32:00.123Z,75.60
2018-04-23T04:33:00.126Z,75.89
2018-04-23T04:34:00.133Z,76.07
2018-04-23T04:35:00.132Z,76.07
2018-04-23T04:36:00.136Z,76.07
2018-04-23T04:37:00.145Z,75.31
2018-04-23T04:38:00.145Z,75.98
2018-04-23T04:39:00.150Z,75.79
2018-04-23T04:40:00.155Z,75.12
2018-04-23T04:41:00.158Z,75.70
2018-04-23T04:42:00.159Z,75.60
2018-04-23T04:43:00.161Z,75.50
2018-04-23T04:44:00.170Z,75.79
2018-04-23T04:45:00.168Z,75.70
2018-04-23T04:46:00.171Z,75.31
2018-04-23T04:47:00.181Z,75.60
2018-04-23T04:48:00.179Z,75.60
2018-04-23T04:49:00.181Z,75.50
2018-04-23T04:50:00.981Z,75.60
2018-04-23T04:51:00.189Z,75.89
2018-04-23T04:52:00.193Z,76.07
2018-04-23T04:53:00.195Z,75.98
2018-04-23T04:54:00.200Z,76.27
2018-04-23T04:55:00.203Z,76.37
2018-04-23T04:56:00.206Z,76.75
2018-04-23T04:57:00.226Z,76.75
2018-04-23T04:58:00.218Z,76.65
2018-04-23T04:59:00.261Z,76.46
2018-04-23T05:00:00.220Z,76.46
2018-04-23T05:01:00.223Z,76.75
2018-04-23T05:02:00.228Z,76.37
2018-04-23T05:03:00.231Z,76.65
2018-04-23T05:04:00.245Z,76.37
2018-04-23T05:05:00.238Z,76.65
2018-04-23T05:06:00.270Z,76.46
2018-04-23T05:07:00.244Z,76.56
2018-04-23T05:08:00.248Z,76.75
2018-04-23T05:09:00.254Z,76.75
2018-04-23T05:10:00.257Z,77.04
2018-04-23T05:11:00.277Z,77.42
2018-04-23T05:12:00.261Z,77.42
2018-04-23T05:13:00.266Z,78.19
2018-04-23T05:14:00.269Z,78.47
2018-04-23T05:15:00.273Z,79.05
2018-04-23T05:16:00.277Z,78.67
2018-04-23T05:17:00.280Z,78.96
2018-04-23T05:18:00.285Z,79.44
2018-04-23T05:19:00.287Z,79.53
2018-04-23T05:20:00.291Z,79.63
2018-04-23T05:21:00.295Z,79.72
2018-04-23T05:22:00.299Z,80.01
2018-04-23T05:23:00.304Z,80.40
2018-04-23T05:24:00.305Z,80.20
2018-04-23T05:25:00.309Z,80.64
2018-04-23T05:26:00.314Z,80.64
2018-04-23T05:27:00.317Z,81.41
2018-04-23T05:28:00.339Z,80.55
2018-04-23T05:29:00.322Z,80.16
2018-04-23T05:30:00.342Z,81.12
2018-04-23T05:31:00.332Z,80.83
2018-04-23T05:32:00.337Z,80.74
2018-04-23T05:33:00.338Z,80.26
2018-04-23T05:34:00.343Z,80.35
2018-04-23T05:35:00.344Z,80.16
2018-04-23T05:36:00.348Z,79.68
2018-04-23T05:37:00.359Z,80.35
2018-04-23T05:38:00.361Z,80.16
2018-04-23T05:39:00.358Z,79.97
2018-04-23T05:40:00.396Z,80.07
2018-04-23T05:41:00.366Z,80.45
2018-04-23T05:42:00.370Z,80.07
2018-04-23T05:43:00.372Z,80.45
2018-04-23T05:44:00.390Z,80.35
2018-04-23T05:45:00.391Z,80.64
2018-04-23T05:46:00.383Z,80.35
2018-04-23T05:47:00.386Z,80.16
2018-04-23T05:48:00.396Z,80.35
2018-04-23T05:49:00.396Z,80.20
2018-04-23T05:50:00.397Z,80.30
2018-04-23T05:51:00.403Z,80.07
2018-04-23T05:52:00.419Z,80.35
2018-04-23T05:53:00.420Z,80.20
2018-04-23T05:54:00.425Z,80.20
2018-04-23T05:55:00.581Z,80.01
2018-04-23T05:56:00.417Z,80.01
2018-04-23T05:57:00.423Z,80.20
2018-04-23T05:58:00.424Z,79.14
2018-04-23T05:59:00.426Z,79.05
2018-04-23T06:00:00.432Z,78.28
2018-04-23T06:01:00.434Z,78.13
2018-04-23T06:02:00.437Z,77.65
2018-04-23T06:03:00.441Z,77.56
2018-04-23T06:04:00.444Z,77.75
2018-04-23T06:05:00.448Z,77.46
2018-04-23T06:06:00.452Z,76.21
2018-04-23T06:07:00.454Z,76.59
2018-04-23T06:08:00.457Z,76.44
2018-04-23T06:09:00.462Z,76.44
2018-04-23T06:10:00.471Z,76.54
2018-04-23T06:11:00.468Z,76.34
2018-04-23T06:12:00.472Z,76.82
2018-04-23T06:13:01.001Z,76.54
2018-04-23T06:14:00.481Z,75.87
2018-04-23T06:15:00.483Z,75.96
2018-04-23T06:16:00.487Z,74.85
2018-04-23T06:17:00.495Z,73.21
2018-04-23T06:18:00.497Z,73.98
2018-04-23T06:19:00.502Z,74.55
2018-04-23T06:20:00.507Z,75.90
2018-04-23T06:21:00.510Z,74.08
2018-04-23T06:22:00.515Z,73.79
2018-04-23T06:23:00.518Z,72.96
2018-04-23T06:24:00.519Z,71.81
2018-04-23T06:25:00.535Z,72.67
2018-04-23T06:26:00.528Z,73.25
2018-04-23T06:27:00.531Z,71.94
2018-04-23T06:28:00.540Z,69.51
2018-04-23T06:29:00.543Z,70.24
2018-04-23T06:30:00.554Z,70.59
2018-04-23T06:31:00.561Z,71.75
2018-04-23T06:32:00.554Z,72.58
2018-04-23T06:33:00.560Z,72.09
2018-04-23T06:34:00.565Z,72.29
2018-04-23T06:35:00.568Z,73.35
2018-04-23T06:36:00.574Z,73.88
2018-04-23T06:37:00.578Z,74.27
2018-04-23T06:38:00.583Z,74.37
2018-04-23T06:39:00.589Z,73.79
2018-04-23T06:40:00.592Z,73.69
2018-04-23T06:41:00.598Z,74.71
2018-04-23T06:42:00.602Z,74.23
2018-04-23T06:43:00.605Z,74.23
2018-04-23T06:44:00.611Z,74.52
2018-04-23T06:45:00.615Z,74.90
2018-04-23T06:46:00.620Z,75.77
2018-04-23T06:47:00.627Z,75.20
2018-04-23T06:48:00.637Z,75.67
2018-04-23T06:49:00.633Z,76.06
2018-04-23T06:50:00.638Z,75.38
2018-04-23T06:51:00.644Z,75.87
2018-04-23T06:52:00.646Z,75.48
2018-04-23T06:53:00.652Z,76.15
2018-04-23T06:54:00.655Z,76.06
2018-04-23T06:55:00.659Z,75.67
2018-04-23T06:56:00.664Z,76.15
2018-04-23T06:57:00.669Z,76.54
2018-04-23T06:58:00.670Z,76.06
2018-04-23T06:59:00.682Z,76.64
2018-04-23T07:00:00.682Z,76.50
2018-04-23T07:01:00.687Z,76.12
2018-04-23T07:02:00.690Z,76.69
2018-04-23T07:03:00.695Z,76.50
2018-04-23T07:04:00.700Z,75.82
2018-04-23T07:05:00.807Z,76.54
2018-04-23T07:06:00.705Z,76.50
2018-04-23T07:07:00.712Z,76.06
2018-04-23T07:08:00.715Z,76.50
2018-04-23T07:09:00.728Z,76.54
2018-04-23T07:10:00.725Z,76.64
2018-04-23T07:11:00.729Z,76.79
2018-04-23T07:12:00.738Z,76.64
2018-04-23T07:13:00.739Z,76.40
2018-04-23T07:14:00.741Z,76.79
2018-04-23T07:15:00.744Z,76.92
2018-04-23T07:16:00.748Z,77.59
2018-04-23T07:17:00.753Z,77.08
2018-04-23T07:18:00.759Z,77.26
2018-04-23T07:19:00.762Z,77.36
2018-04-23T07:20:00.766Z,77.36
2018-04-23T07:21:00.767Z,76.98
2018-04-23T07:22:00.773Z,77.36
2018-04-23T07:23:00.781Z,77.26
2018-04-23T07:24:00.823Z,77.17
2018-04-23T07:25:00.784Z,76.79
2018-04-23T07:26:00.790Z,76.54
2018-04-23T07:27:00.794Z,77.31
2018-04-23T07:28:00.805Z,76.54
2018-04-23T07:29:00.802Z,76.64
2018-04-23T07:30:00.805Z,76.64
2018-04-23T07:31:00.815Z,76.54
2018-04-23T07:32:00.814Z,76.06
2018-04-23T07:33:00.820Z,76.73
2018-04-23T07:34:00.824Z,76.64
2018-04-23T07:35:00.826Z,76.06
2018-04-23T07:36:00.844Z,76.54
2018-04-23T07:37:00.837Z,76.73
2018-04-23T07:38:00.840Z,76.54
2018-04-23T07:39:00.845Z,76.06
2018-04-23T07:40:00.848Z,76.25
2018-04-23T07:41:00.853Z,75.57
2018-04-23T07:42:00.860Z,75.48
2018-04-23T07:43:00.861Z,75.38
2018-04-23T07:44:00.864Z,75.38
2018-04-23T07:45:00.870Z,76.15
2018-04-23T07:46:00.880Z,75.77
2018-04-23T07:47:00.879Z,76.34
2018-04-23T07:48:00.883Z,76.44
2018-04-23T07:49:00.887Z,77.01
2018-04-23T07:50:00.892Z,76.82
2018-04-23T07:51:00.900Z,75.87
2018-04-23T07:52:00.900Z,76.15
2018-04-23T07:53:00.906Z,76.82
2018-04-23T07:54:00.908Z,76.06
2018-04-23T07:55:00.911Z,76.15
2018-04-23T07:56:00.919Z,76.15
2018-04-23T07:57:00.920Z,76.73
2018-04-23T07:58:00.926Z,76.64
2018-04-23T07:59:00.928Z,77.21
2018-04-23T08:00:00.977Z,77.31
2018-04-23T08:01:00.941Z,76.82
2018-04-23T08:02:00.942Z,77.31
2018-04-23T08:03:00.946Z,77.59
2018-04-23T08:04:00.951Z,77.40
2018-04-23T08:05:00.955Z,76.25
2018-04-23T08:06:00.958Z,77.31
2018-04-23T08:07:00.963Z,77.59
2018-04-23T08:08:00.967Z,77.31
2018-04-23T08:09:00.969Z,76.82
2018-04-23T08:10:00.978Z,76.64
2018-04-23T08:11:00.983Z,76.44
2018-04-23T08:12:00.984Z,77.40
2018-04-23T08:13:00.988Z,77.98
2018-04-23T08:14:00.993Z,77.98
2018-04-23T08:15:00.997Z,78.45
2018-04-23T08:16:01.001Z,77.69
2018-04-23T08:17:01.009Z,77.40
2018-04-23T08:18:01.016Z,77.11
2018-04-23T08:19:01.014Z,77.50
2018-04-23T08:20:01.019Z,77.78
2018-04-23T08:21:02.025Z,77.98
2018-04-23T08:22:01.029Z,78.08
2018-04-23T08:23:01.034Z,77.59
2018-04-23T08:24:01.037Z,77.69
2018-04-23T08:25:01.039Z,77.88
2018-04-23T08:26:01.043Z,78.17
2018-04-23T08:27:01.047Z,77.78
2018-04-23T08:28:01.051Z,77.46
2018-04-23T08:29:01.057Z,77.56
2018-04-23T08:30:01.061Z,77.94
2018-04-23T08:31:01.067Z,78.23
2018-04-23T08:32:01.105Z,78.55
2018-04-23T08:33:01.076Z,78.23
2018-04-23T08:34:01.077Z,77.84
2018-04-23T08:35:01.082Z,78.23
2018-04-23T08:36:01.088Z,77.65
2018-04-23T08:37:01.090Z,78.23
2018-04-23T08:38:01.098Z,78.42
2018-04-23T08:39:01.098Z,78.61
2018-04-23T08:40:01.108Z,77.75
2018-04-23T08:41:01.106Z,77.94
2018-04-23T08:42:01.114Z,78.13
2018-04-23T08:43:01.115Z,78.32
2018-04-23T08:44:01.120Z,78.90
2018-04-23T08:45:01.121Z,79.38
2018-04-23T08:46:01.128Z,78.61
2018-04-23T08:47:01.132Z,78.52
2018-04-23T08:48:01.138Z,78.61
2018-04-23T08:49:01.199Z,78.32
2018-04-23T08:50:01.145Z,78.23
2018-04-23T08:51:01.154Z,78.70
2018-04-23T08:52:01.152Z,79.03
2018-04-23T08:53:01.156Z,79.03
2018-04-23T08:54:01.165Z,78.52
2018-04-23T08:55:01.172Z,78.27
2018-04-23T08:56:01.169Z,78.23
2018-04-23T08:57:01.173Z,78.27
2018-04-23T08:58:01.177Z,78.08
2018-04-23T08:59:01.183Z,77.94
2018-04-23T09:00:01.244Z,78.42
2018-04-23T09:01:01.188Z,77.84
2018-04-23T09:02:01.194Z,78.03
2018-04-23T09:03:01.198Z,77.78
2018-04-23T09:04:01.203Z,78.27
2018-04-23T09:05:01.208Z,77.21
2018-04-23T09:06:01.212Z,76.54
2018-04-23T09:07:01.225Z,76.29
2018-04-23T09:08:01.220Z,75.81
2018-04-23T09:09:01.226Z,76.77
2018-04-23T09:10:01.231Z,75.71
2018-04-23T09:11:01.232Z,75.46
2018-04-23T09:12:01.235Z,75.94
2018-04-23T09:13:01.242Z,75.75
2018-04-23T09:14:01.245Z,74.79
2018-04-23T09:15:01.250Z,74.69
2018-04-23T09:16:01.254Z,74.44
2018-04-23T09:17:01.259Z,72.90
2018-04-23T09:18:01.263Z,73.25
2018-04-23T09:19:01.268Z,73.44
2018-04-23T09:20:01.278Z,72.80
2018-04-23T09:21:01.276Z,72.67
2018-04-23T09:22:01.282Z,72.90
2018-04-23T09:23:01.285Z,73.38
2018-04-23T09:24:01.291Z,72.80
2018-04-23T09:25:01.296Z,71.75
2018-04-23T09:26:01.301Z,71.46
2018-04-23T09:27:01.305Z,71.75
2018-04-23T09:28:01.310Z,71.52
2018-04-23T09:29:01.312Z,71.81
2018-04-23T09:30:01.321Z,71.71
2018-04-23T09:31:01.324Z,71.81
2018-04-23T09:32:01.329Z,72.38
2018-04-23T09:33:01.333Z,72.19
2018-04-23T09:34:01.338Z,71.91
2018-04-23T09:35:01.341Z,72.77
2018-04-23T09:36:01.362Z,72.19
2018-04-23T09:37:01.352Z,72.58
2018-04-23T09:38:01.357Z,72.86
2018-04-23T09:39:01.375Z,73.06
2018-04-23T09:40:01.364Z,71.91
2018-04-23T09:41:01.374Z,70.75
2018-04-23T09:42:01.377Z,71.61
2018-04-23T09:43:01.379Z,71.81
2018-04-23T09:44:02.041Z,71.91
2018-04-23T09:45:01.392Z,71.14
2018-04-23T09:46:01.395Z,70.37
2018-04-23T09:47:01.399Z,70.75
2018-04-23T09:48:01.405Z,71.42
2018-04-23T09:49:01.410Z,70.65
2018-04-23T09:50:01.416Z,70.94
2018-04-23T09:51:01.421Z,71.33
2018-04-23T09:52:01.424Z,71.81
2018-04-23T09:53:01.431Z,71.71
2018-04-23T09:54:01.435Z,72.09
2018-04-23T09:55:01.438Z,71.91
2018-04-23T09:56:01.457Z,71.91
2018-04-23T09:57:01.448Z,70.75
2018-04-23T09:58:01.454Z,69.89
2018-04-23T09:59:01.459Z,70.37
2018-04-23T10:00:01.463Z,71.23
2018-04-23T10:01:01.467Z,70.88
2018-04-23T10:02:01.473Z,70.59
2018-04-23T10:03:01.479Z,70.50
2018-04-23T10:04:01.484Z,69.73
2018-04-23T10:05:01.503Z,69.44
2018-04-23T10:06:01.494Z,70.21
2018-04-23T10:07:01.495Z,70.40
2018-04-23T10:08:01.503Z,71.08
2018-04-23T10:09:01.505Z,70.98
2018-04-23T10:10:01.511Z,70.40
2018-04-23T10:11:01.515Z,70.40
2018-04-23T10:12:01.521Z,70.78
2018-04-23T10:13:01.525Z,71.17
2018-04-23T10:14:01.540Z,70.59
2018-04-23T10:15:01.534Z,70.88
2018-04-23T10:16:01.541Z,71.17
2018-04-23T10:17:01.544Z,70.50
2018-04-23T10:18:01.549Z,69.73
2018-04-23T10:19:01.553Z,69.53
2018-04-23T10:20:01.560Z,69.53
2018-04-23T10:21:01.623Z,70.30
2018-04-23T10:22:01.569Z,70.59
2018-04-23T10:23:01.575Z,70.11
2018-04-23T10:24:01.581Z,70.17
2018-04-23T10:25:01.583Z,70.46
2018-04-23T10:26:01.604Z,70.56
2018-04-23T10:27:01.604Z,72.09
2018-04-23T10:28:01.608Z,71.71
2018-04-23T10:29:01.605Z,72.00
2018-04-23T10:30:02.553Z,71.71
2018-04-23T10:31:01.613Z,72.19
2018-04-23T10:32:01.617Z,71.91
2018-04-23T10:33:01.622Z,72.03
2018-04-23T10:34:01.632Z,72.09
2018-04-23T10:35:01.633Z,72.42
2018-04-23T10:36:01.664Z,72.23
2018-04-23T10:37:01.643Z,72.13
2018-04-23T10:38:02.555Z,72.32
2018-04-23T10:39:01.650Z,70.68
2018-04-23T10:40:01.657Z,71.55
2018-04-23T10:41:01.661Z,71.69
2018-04-23T10:42:01.664Z,71.78
2018-04-23T10:43:01.671Z,69.47
2018-04-23T10:44:01.675Z,70.15
2018-04-23T10:45:01.681Z,70.15
2018-04-23T10:46:01.685Z,70.15
2018-04-23T10:47:01.691Z,69.28
2018-04-23T10:48:01.697Z,68.93
2018-04-23T10:49:01.701Z,70.37
2018-04-23T10:50:01.707Z,68.93
2018-04-23T10:51:01.771Z,69.06
2018-04-23T10:52:01.717Z,69.38
2018-04-23T10:53:02.559Z,68.32
2018-04-23T10:54:01.727Z,67.40
2018-04-23T10:55:01.732Z,67.49
2018-04-23T10:56:01.740Z,66.46
2018-04-23T10:57:01.741Z,65.30
2018-04-23T10:58:01.749Z,64.66
2018-04-23T10:59:01.753Z,63.89
2018-04-23T11:00:01.759Z,62.73
2018-04-23T11:01:01.764Z,62.57
2018-04-23T11:02:01.773Z,62.95
2018-04-23T11:03:01.779Z,62.12
2018-04-23T11:04:01.780Z,61.25
2018-04-23T11:05:01.787Z,61.05
2018-04-23T11:06:01.795Z,61.51
2018-04-23T11:07:01.801Z,62.54
2018-04-23T11:08:01.807Z,63.37
2018-04-23T11:09:01.816Z,64.82
2018-04-23T11:10:01.819Z,65.01
2018-04-23T11:11:01.823Z,64.95
2018-04-23T11:12:01.835Z,65.05
2018-04-23T11:13:01.834Z,64.08
2018-04-23T11:14:01.847Z,63.89
2018-04-23T11:15:01.851Z,63.82
2018-04-23T11:16:01.859Z,63.28
2018-04-23T11:17:01.866Z,61.83
2018-04-23T11:18:01.870Z,61.02
2018-04-23T11:19:01.873Z,62.54
2018-04-23T11:20:01.883Z,63.34
2018-04-23T11:21:01.887Z,62.76
2018-04-23T11:22:01.893Z,62.95
2018-04-23T11:23:01.909Z,62.37
2018-04-23T11:24:01.912Z,62.40
2018-04-23T11:25:01.912Z,61.73
2018-04-23T11:26:01.922Z,61.25
2018-04-23T11:27:01.929Z,60.73
2018-04-23T11:28:01.943Z,60.44
2018-04-23T11:29:01.939Z,60.22
2018-04-23T11:30:01.944Z,61.77
2018-04-23T11:31:01.953Z,62.73
2018-04-23T11:32:01.956Z,62.25
2018-04-23T11:33:01.963Z,61.28
2018-04-23T11:34:01.970Z,61.19
2018-04-23T11:35:01.994Z,61.22
2018-04-23T11:36:01.983Z,61.31
2018-04-23T11:37:01.989Z,60.38
2018-04-23T11:38:01.997Z,58.35
2018-04-23T11:39:02.002Z,58.06
2018-04-23T11:40:02.573Z,57.35
2018-04-23T11:41:02.024Z,57.57
2018-04-23T11:42:02.024Z,57.74
2018-04-23T11:43:02.041Z,58.54
2018-04-23T11:44:02.039Z,60.35
2018-04-23T11:45:02.045Z,60.16
2018-04-23T11:46:02.049Z,60.25
2018-04-23T11:47:02.052Z,61.19
2018-04-23T11:48:02.059Z,60.86
2018-04-23T11:49:02.065Z,60.96
2018-04-23T11:50:02.073Z,61.99
2018-04-23T11:51:02.084Z,62.86
2018-04-23T11:52:02.087Z,63.79
2018-04-23T11:53:02.116Z,63.79
2018-04-23T11:54:02.101Z,63.89
2018-04-23T11:55:02.102Z,64.66
2018-04-23T11:56:02.117Z,65.50
2018-04-23T11:57:02.116Z,65.50
2018-04-23T11:58:02.121Z,65.01
2018-04-23T11:59:03.574Z,65.63
2018-04-23T12:00:02.139Z,65.24
2018-04-23T12:01:02.142Z,65.05
2018-04-23T12:02:02.150Z,64.86
2018-04-23T12:03:02.155Z,64.95
2018-04-23T12:04:02.159Z,66.11
2018-04-23T12:05:02.165Z,65.91
2018-04-23T12:06:02.171Z,65.91
2018-04-23T12:07:02.175Z,67.03
2018-04-23T12:08:02.180Z,67.23
2018-04-23T12:09:02.186Z,67.19
2018-04-23T12:10:02.193Z,67.68
2018-04-23T12:11:02.206Z,67.97
2018-04-23T12:12:02.207Z,68.03
2018-04-23T12:13:02.208Z,68.99
2018-04-23T12:14:02.216Z,68.70
2018-04-23T12:15:02.222Z,69.09
2018-04-23T12:16:02.228Z,69.47
2018-04-23T12:17:02.235Z,69.85
2018-04-23T12:18:02.240Z,69.47
2018-04-23T12:19:02.244Z,69.57
2018-04-23T12:20:02.254Z,70.82
2018-04-23T12:21:02.256Z,71.20
2018-04-23T12:22:02.261Z,71.94
2018-04-23T12:23:02.265Z,72.23
2018-04-23T12:24:02.271Z,71.46
2018-04-23T12:25:02.277Z,72.23
2018-04-23T12:26:03.104Z,72.23
2018-04-23T12:27:02.288Z,72.32
2018-04-23T12:28:02.293Z,72.13
2018-04-23T12:29:02.299Z,72.23
2018-04-23T12:30:03.095Z,72.71
2018-04-23T12:31:02.309Z,72.90
2018-04-23T12:32:02.312Z,73.09
2018-04-23T12:33:02.324Z,71.94
2018-04-23T12:34:02.327Z,70.82
2018-04-23T12:35:02.329Z,70.66
2018-04-23T12:36:02.335Z,69.25
2018-04-23T12:37:02.339Z,68.29
2018-04-23T12:38:02.346Z,66.55
2018-04-23T12:39:02.349Z,66.94
2018-04-23T12:40:02.356Z,67.81
2018-04-23T12:41:02.360Z,68.06
2018-04-23T12:42:02.376Z,69.15
2018-04-23T12:43:02.379Z,68.84
2018-04-23T12:44:02.377Z,67.90
2018-04-23T12:45:02.384Z,67.13
2018-04-23T12:46:02.459Z,66.94
2018-04-23T12:47:02.392Z,66.17
2018-04-23T12:48:02.397Z,66.65
2018-04-23T12:49:02.407Z,67.33
2018-04-23T12:50:02.410Z,67.33
2018-04-23T12:51:02.443Z,67.71
2018-04-23T12:52:02.420Z,67.81
2018-04-23T12:53:02.426Z,68.26